createdAt,value
2016-05-05T00:00:29.695Z,36.45
2016-05-05T00:01:29.667Z,36.18
2016-05-05T00:02:29.654Z,36.25
2016-05-05T00:03:29.641Z,36.74
2016-05-05T00:04:29.612Z,36.54
2016-05-05T00:05:29.708Z,36.74
2016-05-05T00:06:29.430Z,36.93
2016-05-05T00:07:29.558Z,36.25
2016-05-05T00:08:29.544Z,36.74
2016-05-05T00:09:29.892Z,36.54
2016-05-05T00:10:29.503Z,36.54
2016-05-05T00:11:29.475Z,36.74
2016-05-05T00:12:29.461Z,36.64
2016-05-05T00:13:30.511Z,36.83
2016-05-05T00:14:29.436Z,36.83
2016-05-05T00:15:29.407Z,36.93
2016-05-05T00:16:29.394Z,36.45
2016-05-05T00:17:29.224Z,36.74
2016-05-05T00:18:29.369Z,36.64
2016-05-05T00:19:29.340Z,36.74
2016-05-05T00:20:29.312Z,36.74
2016-05-05T00:21:29.752Z,36.64
2016-05-05T00:22:29.285Z,36.74
2016-05-05T00:23:29.273Z,36.74
2016-05-05T00:24:29.244Z,36.83
2016-05-05T00:25:29.231Z,36.83
2016-05-05T00:26:29.203Z,36.83
2016-05-05T00:27:29.034Z,37.02
2016-05-05T00:28:29.176Z,36.93
2016-05-05T00:29:29.148Z,36.74
2016-05-05T00:30:29.213Z,36.83
2016-05-05T00:31:29.107Z,37.02
2016-05-05T00:32:29.094Z,37.12
2016-05-05T00:33:29.080Z,37.02
2016-05-05T00:34:29.068Z,37.04
2016-05-05T00:35:29.055Z,37.02
2016-05-05T00:36:29.026Z,37.14
2016-05-05T00:37:28.998Z,37.32
2016-05-05T00:38:28.985Z,37.14
2016-05-05T00:39:28.972Z,37.14
2016-05-05T00:40:28.943Z,37.24
2016-05-05T00:41:28.930Z,37.04
2016-05-05T00:42:28.746Z,37.02
2016-05-05T00:43:28.889Z,37.22
2016-05-05T00:44:28.876Z,37.14
2016-05-05T00:45:28.847Z,37.12
2016-05-05T00:46:28.834Z,37.24
2016-05-05T00:47:28.822Z,37.32
2016-05-05T00:48:28.793Z,37.24
2016-05-05T00:49:28.780Z,37.14
2016-05-05T00:50:28.767Z,37.32
2016-05-05T00:51:28.739Z,37.02
2016-05-05T00:52:28.726Z,37.22
2016-05-05T00:53:28.697Z,37.24
2016-05-05T00:54:28.543Z,36.76
2016-05-05T00:55:28.671Z,37.04
2016-05-05T00:56:28.643Z,36.85
2016-05-05T00:57:28.630Z,37.04
2016-05-05T00:58:28.461Z,36.85
2016-05-05T00:59:28.588Z,36.93
2016-05-05T01:00:28.575Z,37.02
2016-05-05T01:01:28.547Z,37.24
2016-05-05T01:02:28.534Z,37.14
2016-05-05T01:03:28.520Z,37.02
2016-05-05T01:04:28.508Z,37.14
2016-05-05T01:05:28.479Z,37.24
2016-05-05T01:06:28.498Z,37.14
2016-05-05T01:07:28.453Z,37.14
2016-05-05T01:08:28.425Z,37.24
2016-05-05T01:09:28.411Z,37.14
2016-05-05T01:10:28.383Z,37.14
2016-05-05T01:11:28.370Z,37.24
2016-05-05T01:12:28.357Z,37.24
2016-05-05T01:13:28.360Z,37.24
2016-05-05T01:14:28.316Z,37.14
2016-05-05T01:15:28.303Z,37.14
2016-05-05T01:16:28.275Z,37.34
2016-05-05T01:17:28.261Z,37.04
2016-05-05T01:18:28.077Z,37.34
2016-05-05T01:19:28.235Z,37.81
2016-05-05T01:20:28.207Z,38.01
2016-05-05T01:21:28.038Z,38.1
2016-05-05T01:22:28.197Z,38.01
2016-05-05T01:23:28.152Z,37.81
2016-05-05T01:24:28.140Z,37.91
2016-05-05T01:25:28.127Z,37.72
2016-05-05T01:26:28.099Z,37.52
2016-05-05T01:27:28.070Z,37.91
2016-05-05T01:28:27.932Z,37.91
2016-05-05T01:29:28.043Z,37.81
2016-05-05T01:30:28.015Z,37.72
2016-05-05T01:31:28.003Z,37.72
2016-05-05T01:32:27.990Z,37.62
2016-05-05T01:33:27.961Z,37.91
2016-05-05T01:34:27.807Z,37.91
2016-05-05T01:35:27.935Z,38.01
2016-05-05T01:36:27.923Z,38.1
2016-05-05T01:37:27.737Z,38.49
2016-05-05T01:38:27.881Z,38.01
2016-05-05T01:39:27.789Z,37.91
2016-05-05T01:40:27.839Z,37.91
2016-05-05T01:41:27.842Z,37.81
2016-05-05T01:42:27.798Z,37.91
2016-05-05T01:43:27.785Z,37.81
2016-05-05T01:44:27.788Z,37.81
2016-05-05T01:45:27.759Z,37.91
2016-05-05T01:46:27.746Z,37.81
2016-05-05T01:47:27.716Z,37.91
2016-05-05T01:48:27.688Z,37.91
2016-05-05T01:49:27.676Z,37.81
2016-05-05T01:50:27.663Z,37.62
2016-05-05T01:51:27.635Z,37.6
2016-05-05T01:52:27.642Z,37.62
2016-05-05T01:53:27.500Z,37.62
2016-05-05T01:54:27.702Z,37.62
2016-05-05T01:55:27.716Z,37.62
2016-05-05T01:56:27.729Z,37.52
2016-05-05T01:57:27.902Z,37.52
2016-05-05T01:58:27.748Z,37.52
2016-05-05T01:59:27.750Z,37.34
2016-05-05T02:00:27.737Z,37.32
2016-05-05T02:01:27.741Z,37.43
2016-05-05T02:02:27.738Z,37.34
2016-05-05T02:03:27.731Z,37.43
2016-05-05T02:04:47.926Z,37.43
2016-05-05T02:05:27.998Z,37.43
2016-05-05T02:06:27.678Z,37.34
2016-05-05T02:07:27.669Z,37.43
2016-05-05T02:08:27.658Z,37.12
2016-05-05T02:09:27.632Z,37.14
2016-05-05T02:10:27.620Z,37.14
2016-05-05T02:11:27.608Z,37.14
2016-05-05T02:12:27.426Z,37.04
2016-05-05T02:13:28.024Z,37.24
2016-05-05T02:14:27.557Z,37.34
2016-05-05T02:15:27.531Z,37.24
2016-05-05T02:16:27.517Z,37.24
2016-05-05T02:17:27.490Z,37.32
2016-05-05T02:18:27.493Z,37.24
2016-05-05T02:19:27.465Z,37.12
2016-05-05T02:20:27.452Z,37.34
2016-05-05T02:21:28.033Z,37.34
2016-05-05T02:22:27.396Z,37.12
2016-05-05T02:23:27.400Z,37.14
2016-05-05T02:24:27.387Z,37.22
2016-05-05T02:25:27.374Z,37.04
2016-05-05T02:26:27.329Z,37.32
2016-05-05T02:27:27.317Z,37.12
2016-05-05T02:28:27.304Z,37.04
2016-05-05T02:29:27.338Z,37.32
2016-05-05T02:30:27.263Z,37.41
2016-05-05T02:31:27.093Z,37.41
2016-05-05T02:32:27.065Z,37.32
2016-05-05T02:33:27.208Z,37.32
2016-05-05T02:34:27.195Z,37.41
2016-05-05T02:35:27.167Z,37.32
2016-05-05T02:36:27.153Z,37.52
2016-05-05T02:37:27.344Z,37.41
2016-05-05T02:38:27.112Z,37.52
2016-05-05T02:39:26.959Z,37.6
2016-05-05T02:40:27.071Z,37.41
2016-05-05T02:41:26.902Z,37.41
2016-05-05T02:42:27.045Z,37.32
2016-05-05T02:43:27.032Z,37.7
2016-05-05T02:44:27.004Z,37.41
2016-05-05T02:45:27.334Z,37.51
2016-05-05T02:46:26.961Z,37.89
2016-05-05T02:47:26.949Z,38.09
2016-05-05T02:48:26.936Z,37.79
2016-05-05T02:49:26.923Z,37.79
2016-05-05T02:50:26.895Z,37.89
2016-05-05T02:51:26.897Z,37.7
2016-05-05T02:52:26.963Z,37.7
2016-05-05T02:53:26.840Z,37.7
2016-05-05T02:54:27.015Z,37.7
2016-05-05T02:55:26.658Z,37.7
2016-05-05T02:56:26.786Z,37.89
2016-05-05T02:57:26.616Z,37.89
2016-05-05T02:58:26.744Z,37.99
2016-05-05T02:59:26.732Z,37.7
2016-05-05T03:00:26.969Z,37.99
2016-05-05T03:01:26.690Z,37.79
2016-05-05T03:02:26.677Z,37.89
2016-05-05T03:03:26.664Z,37.99
2016-05-05T03:04:26.635Z,37.89
2016-05-05T03:05:26.623Z,37.99
2016-05-05T03:06:26.609Z,37.79
2016-05-05T03:07:26.581Z,37.79
2016-05-05T03:08:26.975Z,37.7
2016-05-05T03:09:28.196Z,37.89
2016-05-05T03:10:26.542Z,37.89
2016-05-05T03:11:26.513Z,37.79
2016-05-05T03:12:26.485Z,37.99
2016-05-05T03:13:26.488Z,37.99
2016-05-05T03:14:26.459Z,37.99
2016-05-05T03:15:26.430Z,38.28
2016-05-05T03:16:26.964Z,38.09
2016-05-05T03:17:26.405Z,37.99
2016-05-05T03:18:26.392Z,38.09
2016-05-05T03:19:26.208Z,38.09
2016-05-05T03:20:26.335Z,37.99
2016-05-05T03:21:26.321Z,38.09
2016-05-05T03:22:26.308Z,37.89
2016-05-05T03:23:26.140Z,37.99
2016-05-05T03:24:26.877Z,38.09
2016-05-05T03:25:26.255Z,37.89
2016-05-05T03:26:26.085Z,37.89
2016-05-05T03:27:26.213Z,37.99
2016-05-05T03:28:26.215Z,37.99
2016-05-05T03:29:26.188Z,37.99
2016-05-05T03:30:26.174Z,37.99
2016-05-05T03:31:26.161Z,37.99
2016-05-05T03:32:26.273Z,37.89
2016-05-05T03:33:26.120Z,37.89
2016-05-05T03:34:26.091Z,37.89
2016-05-05T03:35:26.063Z,37.89
2016-05-05T03:36:26.050Z,37.89
2016-05-05T03:37:26.099Z,38.09
2016-05-05T03:38:26.024Z,38.09
2016-05-05T03:39:26.151Z,37.99
2016-05-05T03:40:26.279Z,38.18
2016-05-05T03:41:25.813Z,38.66
2016-05-05T03:42:25.941Z,38.47
2016-05-05T03:43:25.928Z,38.56
2016-05-05T03:44:25.915Z,38.56
2016-05-05T03:45:25.886Z,38.56
2016-05-05T03:46:25.873Z,38.76
2016-05-05T03:47:25.861Z,38.56
2016-05-05T03:48:26.286Z,38.47
2016-05-05T03:49:25.663Z,38.47
2016-05-05T03:50:25.805Z,38.76
2016-05-05T03:51:25.777Z,38.47
2016-05-05T03:52:25.764Z,38.56
2016-05-05T03:53:25.595Z,38.47
2016-05-05T03:54:25.816Z,38.66
2016-05-05T03:55:25.710Z,38.66
2016-05-05T03:56:25.697Z,38.37
2016-05-05T03:57:25.669Z,38.37
2016-05-05T03:58:25.655Z,38.28
2016-05-05T03:59:25.471Z,38.37
2016-05-05T04:00:25.614Z,38.47
2016-05-05T04:01:25.445Z,38.28
2016-05-05T04:02:25.573Z,38.37
2016-05-05T04:03:25.559Z,38.37
2016-05-05T04:04:25.546Z,38.37
2016-05-05T04:05:25.518Z,38.37
2016-05-05T04:06:25.506Z,38.28
2016-05-05T04:07:25.493Z,38.28
2016-05-05T04:08:25.479Z,38.18
2016-05-05T04:09:25.467Z,38.28
2016-05-05T04:10:25.437Z,38.37
2016-05-05T04:11:25.409Z,38.37
2016-05-05T04:12:25.397Z,38.09
2016-05-05T04:13:25.228Z,38.56
2016-05-05T04:14:25.355Z,38.56
2016-05-05T04:15:25.358Z,38.56
2016-05-05T04:16:25.329Z,38.28
2016-05-05T04:17:25.301Z,38.66
2016-05-05T04:18:25.288Z,38.37
2016-05-05T04:19:25.275Z,38.47
2016-05-05T04:20:25.246Z,38.28
2016-05-05T04:21:25.233Z,38.18
2016-05-05T04:22:25.205Z,38.37
2016-05-05T04:23:25.207Z,38.66
2016-05-05T04:24:26.616Z,38.37
2016-05-05T04:25:24.994Z,38.37
2016-05-05T04:26:25.138Z,38.47
2016-05-05T04:27:25.109Z,38.37
2016-05-05T04:28:25.111Z,38.37
2016-05-05T04:29:25.083Z,38.28
2016-05-05T04:30:25.070Z,38.56
2016-05-05T04:31:25.041Z,38.37
2016-05-05T04:32:25.029Z,38.28
2016-05-05T04:33:25.015Z,38.28
2016-05-05T04:34:24.987Z,38.28
2016-05-05T04:35:24.973Z,38.28
2016-05-05T04:36:24.962Z,38.28
2016-05-05T04:37:24.932Z,38.18
2016-05-05T04:38:24.935Z,38.28
2016-05-05T04:39:24.907Z,38.18
2016-05-05T04:40:24.737Z,38.09
2016-05-05T04:41:24.865Z,38.28
2016-05-05T04:42:24.853Z,38.28
2016-05-05T04:43:24.839Z,38.28
2016-05-05T04:44:24.654Z,38.37
2016-05-05T04:45:24.798Z,38.09
2016-05-05T04:46:24.770Z,38.28
2016-05-05T04:47:24.756Z,38.18
2016-05-05T04:48:24.727Z,38.37
2016-05-05T04:49:24.715Z,38.18
2016-05-05T04:50:24.702Z,38.47
2016-05-05T04:51:24.689Z,38.37
2016-05-05T04:52:24.660Z,38.28
2016-05-05T04:53:24.648Z,38.18
2016-05-05T04:54:24.931Z,38.18
2016-05-05T04:55:24.621Z,38.37
2016-05-05T04:56:24.578Z,38.28
2016-05-05T04:57:24.564Z,38.18
2016-05-05T04:58:24.551Z,38.28
2016-05-05T04:59:24.539Z,38.18
2016-05-05T05:00:24.510Z,37.99
2016-05-05T05:01:24.513Z,38.09
2016-05-05T05:02:24.469Z,38.09
2016-05-05T05:03:24.315Z,37.99
2016-05-05T05:04:24.442Z,38.09
2016-05-05T05:05:24.414Z,38.09
2016-05-05T05:06:24.402Z,37.99
2016-05-05T05:07:24.373Z,38.09
2016-05-05T05:08:24.360Z,38.18
2016-05-05T05:09:26.190Z,38.18
2016-05-05T05:10:24.334Z,38.37
2016-05-05T05:11:24.305Z,38.37
2016-05-05T05:12:24.137Z,38.47
2016-05-05T05:13:24.279Z,38.66
2016-05-05T05:14:24.095Z,38.18
2016-05-05T05:15:24.238Z,38.37
2016-05-05T05:16:24.272Z,38.37
2016-05-05T05:17:24.196Z,38.37
2016-05-05T05:18:24.183Z,38.37
2016-05-05T05:19:24.155Z,38.18
2016-05-05T05:20:24.142Z,38.37
2016-05-05T05:21:24.129Z,38.37
2016-05-05T05:22:24.100Z,38.37
2016-05-05T05:23:24.088Z,38.28
2016-05-05T05:24:24.278Z,38.37
2016-05-05T05:25:24.046Z,38.47
2016-05-05T05:26:24.033Z,38.37
2016-05-05T05:27:24.019Z,38.47
2016-05-05T05:28:23.835Z,38.47
2016-05-05T05:29:23.994Z,38.47
2016-05-05T05:30:23.950Z,38.37
2016-05-05T05:31:23.937Z,38.18
2016-05-05T05:32:24.268Z,38.37
2016-05-05T05:33:23.911Z,38.47
2016-05-05T05:34:23.882Z,38.47
2016-05-05T05:35:23.870Z,38.47
2016-05-05T05:36:23.841Z,38.28
2016-05-05T05:37:23.828Z,38.47
2016-05-05T05:38:23.815Z,38.37
2016-05-05T05:39:24.912Z,38.66
2016-05-05T05:40:24.243Z,38.37
2016-05-05T05:41:23.761Z,38.37
2016-05-05T05:42:23.732Z,38.37
2016-05-05T05:43:23.719Z,38.18
2016-05-05T05:44:23.690Z,38.28
2016-05-05T05:45:23.678Z,38.28
2016-05-05T05:46:23.665Z,38.28
2016-05-05T05:47:23.652Z,38.18
2016-05-05T05:48:24.280Z,38.37
2016-05-05T05:49:23.611Z,37.99
2016-05-05T05:50:23.581Z,38.28
2016-05-05T05:51:23.569Z,38.09
2016-05-05T05:52:23.556Z,38.09
2016-05-05T05:53:23.543Z,38.09
2016-05-05T05:54:24.171Z,37.99
2016-05-05T05:55:23.502Z,38.18
2016-05-05T05:56:23.582Z,38.09
2016-05-05T05:57:23.460Z,37.99
2016-05-05T05:58:23.432Z,38.09
2016-05-05T05:59:23.435Z,38.18
2016-05-05T06:00:23.405Z,38.09
2016-05-05T06:01:23.377Z,38.09
2016-05-05T06:02:23.363Z,38.09
2016-05-05T06:03:23.351Z,38.09
2016-05-05T06:04:23.526Z,38.28
2016-05-05T06:05:23.326Z,38.28
2016-05-05T06:06:23.297Z,38.09
2016-05-05T06:07:23.284Z,38.09
2016-05-05T06:08:23.254Z,38.09
2016-05-05T06:09:23.242Z,38.09
2016-05-05T06:10:23.246Z,38.47
2016-05-05T06:11:23.263Z,38.66
2016-05-05T06:12:23.578Z,38.28
2016-05-05T06:13:23.175Z,38.37
2016-05-05T06:14:23.146Z,38.28
2016-05-05T06:15:23.133Z,38.28
2016-05-05T06:16:23.105Z,38.37
2016-05-05T06:17:23.092Z,38.37
2016-05-05T06:18:23.078Z,38.37
2016-05-05T06:19:23.097Z,38.28
2016-05-05T06:20:23.037Z,38.18
2016-05-05T06:21:23.025Z,38.37
2016-05-05T06:22:22.839Z,38.18
2016-05-05T06:23:23.368Z,38.28
2016-05-05T06:24:22.964Z,38.47
2016-05-05T06:25:22.951Z,38.47
2016-05-05T06:26:22.924Z,38.37
2016-05-05T06:27:23.222Z,38.37
2016-05-05T06:28:22.896Z,38.37
2016-05-05T06:29:22.727Z,38.28
2016-05-05T06:30:22.855Z,38.37
2016-05-05T06:31:22.827Z,38.47
2016-05-05T06:32:22.815Z,38.47
2016-05-05T06:33:22.785Z,38.28
2016-05-05T06:34:22.773Z,38.18
2016-05-05T06:35:23.056Z,38.37
2016-05-05T06:36:22.746Z,38.47
2016-05-05T06:37:22.734Z,38.56
2016-05-05T06:38:22.705Z,38.18
2016-05-05T06:39:22.692Z,38.47
2016-05-05T06:40:22.679Z,38.37
2016-05-05T06:41:22.650Z,38.37
2016-05-05T06:42:22.638Z,38.37
2016-05-05T06:43:23.219Z,38.28
2016-05-05T06:44:22.581Z,38.56
2016-05-05T06:45:22.427Z,38.47
2016-05-05T06:46:22.555Z,38.37
2016-05-05T06:47:22.542Z,38.28
2016-05-05T06:48:22.513Z,38.56
2016-05-05T06:49:22.516Z,38.47
2016-05-05T06:50:22.488Z,38.66
2016-05-05T06:51:22.474Z,38.37
2016-05-05T06:52:22.446Z,38.66
2016-05-05T06:53:22.433Z,38.37
2016-05-05T06:54:22.452Z,38.37
2016-05-05T06:55:22.391Z,38.66
2016-05-05T06:56:22.379Z,38.28
2016-05-05T06:57:22.366Z,38.47
2016-05-05T06:58:22.352Z,38.56
2016-05-05T06:59:22.527Z,38.37
2016-05-05T07:00:22.295Z,38.47
2016-05-05T07:01:22.283Z,38.76
2016-05-05T07:02:22.270Z,38.47
2016-05-05T07:03:22.241Z,38.56
2016-05-05T07:04:22.244Z,38.56
2016-05-05T07:05:22.216Z,38.66
2016-05-05T07:06:22.187Z,38.56
2016-05-05T07:07:22.471Z,38.47
2016-05-05T07:08:22.161Z,38.76
2016-05-05T07:09:22.476Z,38.56
2016-05-05T07:10:22.120Z,38.56
2016-05-05T07:11:22.090Z,38.66
2016-05-05T07:12:21.922Z,38.47
2016-05-05T07:13:22.065Z,38.56
2016-05-05T07:14:22.053Z,38.56
2016-05-05T07:15:22.476Z,38.47
2016-05-05T07:16:22.010Z,38.66
2016-05-05T07:17:21.998Z,38.66
2016-05-05T07:18:21.969Z,38.66
2016-05-05T07:19:21.800Z,38.76
2016-05-05T07:20:21.943Z,38.76
2016-05-05T07:21:21.914Z,38.56
2016-05-05T07:22:21.917Z,38.66
2016-05-05T07:23:21.872Z,38.56
2016-05-05T07:24:21.860Z,38.56
2016-05-05T07:25:21.847Z,39.81
2016-05-05T07:26:21.678Z,41.06
2016-05-05T07:27:21.805Z,42.41
2016-05-05T07:28:21.793Z,43.47
2016-05-05T07:29:21.780Z,44.05
2016-05-05T07:30:21.767Z,44.82
2016-05-05T07:31:21.582Z,44.91
2016-05-05T07:32:21.554Z,45.29
2016-05-05T07:33:21.697Z,45.2
2016-05-05T07:34:21.684Z,46.06
2016-05-05T07:35:21.671Z,45.59
2016-05-05T07:36:21.643Z,45.59
2016-05-05T07:37:21.629Z,46.36
2016-05-05T07:38:21.617Z,46.36
2016-05-05T07:39:21.619Z,46.06
2016-05-05T07:40:21.576Z,45.78
2016-05-05T07:41:21.406Z,45.59
2016-05-05T07:42:21.533Z,45.2
2016-05-05T07:43:21.521Z,45.39
2016-05-05T07:44:21.508Z,45.01
2016-05-05T07:45:21.479Z,44.72
2016-05-05T07:46:21.481Z,44.43
2016-05-05T07:47:21.437Z,40.49
2016-05-05T07:48:21.440Z,37.22
2016-05-05T07:49:21.411Z,39.53
2016-05-05T07:50:21.400Z,41.83
2016-05-05T07:51:21.386Z,42.6
2016-05-05T07:52:21.358Z,41.45
2016-05-05T07:53:21.344Z,40.97
2016-05-05T07:54:21.425Z,40.88
2016-05-05T07:55:21.318Z,40.88
2016-05-05T07:56:21.290Z,40.97
2016-05-05T07:57:21.277Z,41.06
2016-05-05T07:58:21.249Z,40.58
2016-05-05T07:59:21.080Z,40.58
2016-05-05T08:00:21.066Z,40.2
2016-05-05T08:01:21.210Z,40.3
2016-05-05T08:02:21.181Z,40.49
2016-05-05T08:03:21.168Z,40.01
2016-05-05T08:04:21.140Z,40.39
2016-05-05T08:05:21.127Z,40.01
2016-05-05T08:06:21.099Z,40.01
2016-05-05T08:07:21.085Z,40.11
2016-05-05T08:08:21.072Z,40.2
2016-05-05T08:09:21.966Z,39.43
2016-05-05T08:10:21.031Z,39.24
2016-05-05T08:11:21.018Z,39.14
2016-05-05T08:12:21.004Z,38.76
2016-05-05T08:13:20.976Z,39.14
2016-05-05T08:14:20.964Z,39.14
2016-05-05T08:15:20.935Z,38.95
2016-05-05T08:16:20.922Z,38.85
2016-05-05T08:17:20.924Z,38.85
2016-05-05T08:18:20.740Z,38.76
2016-05-05T08:19:20.883Z,38.47
2016-05-05T08:20:20.855Z,38.56
2016-05-05T08:21:20.842Z,38.47
2016-05-05T08:22:20.829Z,38.56
2016-05-05T08:23:20.816Z,38.47
2016-05-05T08:24:20.662Z,38.56
2016-05-05T08:25:20.758Z,38.66
2016-05-05T08:26:20.746Z,38.56
2016-05-05T08:27:20.717Z,38.47
2016-05-05T08:28:20.720Z,38.56
2016-05-05T08:29:20.691Z,38.56
2016-05-05T08:30:20.678Z,38.56
2016-05-05T08:31:20.666Z,38.47
2016-05-05T08:32:20.637Z,38.56
2016-05-05T08:33:20.624Z,38.37
2016-05-05T08:34:20.611Z,38.37
2016-05-05T08:35:20.582Z,38.66
2016-05-05T08:36:20.569Z,38.47
2016-05-05T08:37:20.541Z,38.47
2016-05-05T08:38:20.387Z,38.47
2016-05-05T08:39:20.374Z,38.37
2016-05-05T08:40:20.501Z,38.47
2016-05-05T08:41:20.473Z,38.47
2016-05-05T08:42:20.460Z,38.47
2016-05-05T08:43:20.463Z,38.37
2016-05-05T08:44:20.419Z,38.47
2016-05-05T08:45:20.407Z,38.56
2016-05-05T08:46:20.393Z,38.56
2016-05-05T08:47:20.380Z,38.47
2016-05-05T08:48:20.351Z,38.47
2016-05-05T08:49:20.339Z,38.47
2016-05-05T08:50:20.326Z,38.66
2016-05-05T08:51:20.453Z,38.54
2016-05-05T08:52:20.284Z,38.37
2016-05-05T08:53:20.272Z,38.47
2016-05-05T08:54:20.258Z,38.47
2016-05-05T08:55:20.230Z,38.66
2016-05-05T08:56:20.217Z,38.37
2016-05-05T08:57:20.033Z,38.47
2016-05-05T08:58:20.175Z,38.56
2016-05-05T08:59:20.443Z,38.66
2016-05-05T09:00:20.134Z,39.33
2016-05-05T09:01:20.122Z,39.43
2016-05-05T09:02:20.107Z,39.24
2016-05-05T09:03:20.096Z,39.72
2016-05-05T09:04:20.066Z,39.81
2016-05-05T09:05:20.054Z,40.39
2016-05-05T09:06:20.040Z,40.11
2016-05-05T09:07:20.465Z,40.39
2016-05-05T09:08:19.984Z,39.81
2016-05-05T09:09:19.908Z,40.3
2016-05-05T09:10:19.957Z,40.3
2016-05-05T09:11:19.945Z,39.81
2016-05-05T09:12:19.760Z,39.62
2016-05-05T09:13:19.904Z,39.43
2016-05-05T09:14:19.906Z,39.72
2016-05-05T09:15:20.471Z,39.91
2016-05-05T09:16:19.849Z,40.01
2016-05-05T09:17:19.837Z,39.81
2016-05-05T09:18:19.822Z,39.91
2016-05-05T09:19:19.795Z,39.91
2016-05-05T09:20:19.781Z,40.01
2016-05-05T09:21:19.769Z,39.81
2016-05-05T09:22:19.740Z,39.72
2016-05-05T09:23:20.477Z,39.62
2016-05-05T09:24:19.730Z,39.53
2016-05-05T09:25:19.685Z,39.53
2016-05-05T09:26:19.673Z,39.33
2016-05-05T09:27:19.660Z,38.56
2016-05-05T09:28:19.631Z,32.41
2016-05-05T09:29:19.619Z,30.87
2016-05-05T09:30:19.607Z,34.43
2016-05-05T09:31:19.723Z,34.53
2016-05-05T09:32:19.557Z,34.81
2016-05-05T09:33:19.544Z,35
2016-05-05T09:34:19.530Z,35.3
2016-05-05T09:35:19.499Z,35.1
2016-05-05T09:36:19.486Z,34.81
2016-05-05T09:37:19.474Z,34.62
2016-05-05T09:38:19.444Z,34.53
2016-05-05T09:39:19.810Z,34.53
2016-05-05T09:40:19.247Z,34.33
2016-05-05T09:41:19.390Z,34.23
2016-05-05T09:42:19.366Z,34.53
2016-05-05T09:43:19.359Z,34.33
2016-05-05T09:44:19.174Z,33.37
2016-05-05T09:45:19.317Z,30.49
2016-05-05T09:46:19.413Z,29.62
2016-05-05T09:47:19.370Z,32.7
2016-05-05T09:48:19.715Z,32.7
2016-05-05T09:49:19.250Z,32.98
2016-05-05T09:50:19.221Z,33.18
2016-05-05T09:51:19.208Z,32.6
2016-05-05T09:52:19.195Z,32.21
2016-05-05T09:53:19.167Z,32.41
2016-05-05T09:54:19.591Z,32.31
2016-05-05T09:55:19.125Z,31.93
2016-05-05T09:56:19.112Z,31.93
2016-05-05T09:57:19.099Z,32.03
2016-05-05T09:58:18.930Z,32.21
2016-05-05T09:59:19.058Z,31.74
2016-05-05T10:00:19.060Z,31.83
2016-05-05T10:01:19.032Z,32.03
2016-05-05T10:02:19.410Z,30.97
2016-05-05T10:03:18.990Z,31.93
2016-05-05T10:04:18.977Z,31.93
2016-05-05T10:05:18.964Z,31.64
2016-05-05T10:06:18.935Z,31.26
2016-05-05T10:07:18.751Z,31.74
2016-05-05T10:08:18.910Z,31.64
2016-05-05T10:09:18.850Z,31.64
2016-05-05T10:10:19.509Z,31.54
2016-05-05T10:11:18.965Z,31.45
2016-05-05T10:12:18.670Z,31.16
2016-05-05T10:13:18.799Z,30.1
2016-05-05T10:14:18.645Z,31.06
2016-05-05T10:15:18.787Z,31.35
2016-05-05T10:16:18.760Z,31.16
2016-05-05T10:17:18.731Z,31.45
2016-05-05T10:18:19.436Z,29.72
2016-05-05T10:19:18.706Z,30.87
2016-05-05T10:20:18.708Z,31.16
2016-05-05T10:21:18.663Z,30.97
2016-05-05T10:22:18.667Z,30.68
2016-05-05T10:23:18.638Z,30.68
2016-05-05T10:24:20.187Z,30.87
2016-05-05T10:25:18.596Z,29.04
2016-05-05T10:26:19.427Z,25.78
2016-05-05T10:27:18.555Z,25.1
2016-05-05T10:28:20.027Z,25.1
2016-05-05T10:29:18.372Z,24.91
2016-05-05T10:30:18.500Z,25.29
2016-05-05T10:31:18.487Z,26.25
2016-05-05T10:32:18.458Z,26.54
2016-05-05T10:33:18.462Z,27.22
2016-05-05T10:34:18.730Z,27.5
2016-05-05T10:35:18.405Z,27.7
2016-05-05T10:36:18.391Z,27.89
2016-05-05T10:37:18.379Z,28.37
2016-05-05T10:38:18.350Z,28.08
2016-05-05T10:39:18.352Z,28.08
2016-05-05T10:40:18.168Z,28.27
2016-05-05T10:41:18.154Z,28.75
2016-05-05T10:42:18.735Z,28.47
2016-05-05T10:43:18.270Z,28.47
2016-05-05T10:44:18.241Z,28.08
2016-05-05T10:45:18.228Z,28.75
2016-05-05T10:46:18.200Z,28.95
2016-05-05T10:47:18.187Z,28.95
2016-05-05T10:48:18.252Z,28.75
2016-05-05T10:49:18.004Z,28.66
2016-05-05T10:50:18.132Z,28.95
2016-05-05T10:51:18.119Z,29.04
2016-05-05T10:52:18.106Z,28.95
2016-05-05T10:53:18.094Z,28.95
2016-05-05T10:54:18.064Z,29.33
2016-05-05T10:55:18.395Z,29.33
2016-05-05T10:56:18.039Z,29.24
2016-05-05T10:57:17.855Z,29.43
2016-05-05T10:58:17.997Z,29.24
2016-05-05T10:59:18.017Z,29.24
2016-05-05T11:00:18.031Z,29.62
2016-05-05T11:01:17.890Z,29.81
2016-05-05T11:02:18.093Z,29.43
2016-05-05T11:03:18.108Z,29.91
2016-05-05T11:04:18.118Z,29.81
2016-05-05T11:05:18.122Z,29.33
2016-05-05T11:06:18.124Z,29.91
2016-05-05T11:07:18.112Z,29.81
2016-05-05T11:08:18.114Z,29.81
2016-05-05T11:09:18.095Z,29.91
2016-05-05T11:10:18.087Z,29.81
2016-05-05T11:11:18.080Z,29.62
2016-05-05T11:12:18.056Z,29.81
2016-05-05T11:13:18.064Z,29.62
2016-05-05T11:14:18.038Z,29.81
2016-05-05T11:15:18.012Z,29.43
2016-05-05T11:16:18.000Z,29.62
2016-05-05T11:17:17.833Z,29.91
2016-05-05T11:18:17.978Z,28.56
2016-05-05T11:19:17.952Z,26.27
2016-05-05T11:20:17.939Z,24.92
2016-05-05T11:21:17.926Z,24.82
2016-05-05T11:22:17.915Z,25.39
2016-05-05T11:23:17.899Z,25.29
2016-05-05T11:24:17.871Z,25.01
2016-05-05T11:25:17.843Z,24.71
2016-05-05T11:26:17.846Z,24.62
2016-05-05T11:27:17.646Z,24.81
2016-05-05T11:28:17.633Z,24.91
2016-05-05T11:29:17.620Z,25.1
2016-05-05T11:30:17.592Z,24.82
2016-05-05T11:31:17.594Z,25.02
2016-05-05T11:32:17.723Z,25.02
2016-05-05T11:33:17.695Z,24.71
2016-05-05T11:34:17.681Z,24.81
2016-05-05T11:35:17.668Z,25.01
2016-05-05T11:36:17.655Z,25.48
2016-05-05T11:37:17.627Z,25.48
2016-05-05T11:38:17.457Z,25.88
2016-05-05T11:39:17.601Z,25.88
2016-05-05T11:40:17.573Z,25.4
2016-05-05T11:41:17.560Z,25.11
2016-05-05T11:42:17.547Z,25.2
2016-05-05T11:43:17.518Z,25.1
2016-05-05T11:44:17.505Z,25.29
2016-05-05T11:45:17.492Z,24.81
2016-05-05T11:46:17.464Z,25.1
2016-05-05T11:47:17.451Z,25.1
2016-05-05T11:48:17.422Z,25.29
2016-05-05T11:49:17.409Z,25.68
2016-05-05T11:50:17.396Z,25.98
2016-05-05T11:51:17.368Z,26.36
2016-05-05T11:52:17.354Z,26.06
2016-05-05T11:53:17.342Z,26.75
2016-05-05T11:54:17.313Z,26.84
2016-05-05T11:55:17.332Z,26.94
2016-05-05T11:56:17.132Z,26.84
2016-05-05T11:57:17.259Z,26.75
2016-05-05T11:58:17.246Z,26.75
2016-05-05T11:59:17.233Z,26.84
2016-05-05T12:00:17.204Z,26.75
2016-05-05T12:01:17.191Z,27.23
2016-05-05T12:02:17.178Z,27.23
2016-05-05T12:03:16.994Z,26.94
2016-05-05T12:04:17.137Z,26.84
2016-05-05T12:05:17.125Z,27.33
2016-05-05T12:06:17.095Z,27.23
2016-05-05T12:07:16.927Z,27.33
2016-05-05T12:08:17.069Z,27.61
2016-05-05T12:09:17.057Z,27.33
2016-05-05T12:10:17.028Z,27.42
2016-05-05T12:11:17.016Z,27.81
2016-05-05T12:12:17.002Z,27.81
2016-05-05T12:13:16.974Z,27.91
2016-05-05T12:14:16.804Z,27.91
2016-05-05T12:15:16.948Z,27.82
2016-05-05T12:16:16.918Z,27.81
2016-05-05T12:17:16.907Z,27.82
2016-05-05T12:18:17.003Z,27.61
2016-05-05T12:19:16.880Z,27.62
2016-05-05T12:20:16.868Z,27.53
2016-05-05T12:21:16.854Z,27.72
2016-05-05T12:22:16.670Z,27.72
2016-05-05T12:23:16.640Z,27.53
2016-05-05T12:24:16.784Z,27.72
2016-05-05T12:25:16.772Z,27.44
2016-05-05T12:26:17.009Z,27.62
2016-05-05T12:27:16.934Z,26.97
2016-05-05T12:28:16.717Z,26.78
2016-05-05T12:29:16.704Z,26.97
2016-05-05T12:30:16.691Z,26.78
2016-05-05T12:31:16.663Z,26.87
2016-05-05T12:32:16.650Z,26.78
2016-05-05T12:33:16.636Z,27.06
2016-05-05T12:34:17.014Z,26.68
2016-05-05T12:35:16.611Z,26.89
2016-05-05T12:36:16.425Z,26.59
2016-05-05T12:37:16.569Z,26.4
2016-05-05T12:38:16.556Z,26.4
2016-05-05T12:39:16.528Z,26.4
2016-05-05T12:40:16.796Z,26.21
2016-05-05T12:41:16.502Z,26.31
2016-05-05T12:42:17.036Z,26.22
2016-05-05T12:43:16.460Z,26.02
2016-05-05T12:44:16.432Z,26.51
2016-05-05T12:45:16.435Z,26.42
2016-05-05T12:46:16.407Z,26.32
2016-05-05T12:47:16.393Z,26.32
2016-05-05T12:48:16.380Z,26.32
2016-05-05T12:49:16.352Z,26.03
2016-05-05T12:50:17.042Z,26.42
2016-05-05T12:51:16.326Z,26.12
2016-05-05T12:52:16.312Z,26.32
2016-05-05T12:53:16.300Z,26.12
2016-05-05T12:54:16.271Z,26.32